createdAt,value
2023-03-02T00:01:09.568Z,32.85
2023-03-02T00:03:39.134Z,31.30
2023-03-02T00:06:07.334Z,32.97
2023-03-02T00:08:34.819Z,34.40
2023-03-02T00:11:01.898Z,31.40
2023-03-02T00:13:32.507Z,31.55
2023-03-02T00:15:59.061Z,34.13
2023-03-02T00:18:25.694Z,32.63
2023-03-02T00:20:52.165Z,33.88
2023-03-02T00:23:19.078Z,31.02
2023-03-02T00:25:45.637Z,37.60
2023-03-02T00:28:12.169Z,36.47
2023-03-02T00:30:39.347Z,36.75
2023-03-02T00:33:05.882Z,32.03
2023-03-02T00:35:37.391Z,34.83
2023-03-02T00:38:03.891Z,37.35
2023-03-02T00:40:30.515Z,34.35
2023-03-02T00:42:56.934Z,39.30
2023-03-02T00:45:23.510Z,45.30
2023-03-02T00:47:50.049Z,40.75
2023-03-02T00:50:16.847Z,34.78
2023-03-02T00:52:43.444Z,37.25
2023-03-02T00:55:09.982Z,36.72
2023-03-02T00:57:36.807Z,35.72
2023-03-02T01:00:10.447Z,38.80
2023-03-02T01:02:43.998Z,42.30
2023-03-02T01:05:14.559Z,35.30
2023-03-02T01:07:41.046Z,41.72
2023-03-02T01:10:08.067Z,42.22
2023-03-02T01:12:34.869Z,42.72
2023-03-02T01:15:02.140Z,37.38
2023-03-02T01:17:28.791Z,42.42
2023-03-02T01:19:56.313Z,37.55
2023-03-02T01:22:23.231Z,38.92
2023-03-02T01:24:50.224Z,38.78
2023-03-02T01:27:16.847Z,40.13
2023-03-02T01:29:43.432Z,42.35
2023-03-02T01:32:09.975Z,38.95
2023-03-02T01:34:37.980Z,36.67
2023-03-02T01:37:05.965Z,39.67
2023-03-02T01:39:32.396Z,38.78
2023-03-02T01:41:58.819Z,37.17
2023-03-02T01:44:40.696Z,36.17
2023-03-02T01:49:56.977Z,34.30
2023-03-02T01:52:26.139Z,37.83
2023-03-02T01:54:57.163Z,37.75
2023-03-02T01:57:30.457Z,39.08
2023-03-02T02:00:01.823Z,42.05
2023-03-02T02:02:41.856Z,41.83
2023-03-02T02:05:11.946Z,35.97
2023-03-02T02:07:39.690Z,36.20
2023-03-02T02:10:07.839Z,38.90
2023-03-02T02:12:34.676Z,39.65
2023-03-02T02:15:02.208Z,45.83
2023-03-02T02:17:30.084Z,35.97
2023-03-02T02:20:07.148Z,37.88
2023-03-02T02:22:49.014Z,35.28
2023-03-02T02:27:51.647Z,30.90
2023-03-02T02:30:20.926Z,32.65
2023-03-02T02:32:49.636Z,38.03
2023-03-02T02:35:24.421Z,35.15
2023-03-02T02:37:55.468Z,36.45
2023-03-02T02:40:40.279Z,40.35
2023-03-02T02:43:12.547Z,39.95
2023-03-02T02:45:39.334Z,36.10
2023-03-02T02:48:08.820Z,33.30
2023-03-02T02:50:35.839Z,39.80
2023-03-02T02:53:16.143Z,32.05
2023-03-02T02:55:44.173Z,39.88
2023-03-02T02:58:27.589Z,35.08
2023-03-02T03:00:55.316Z,37.47
2023-03-02T03:03:32.441Z,39.28
2023-03-02T03:06:05.669Z,32.20
2023-03-02T03:08:41.337Z,39.08
2023-03-02T03:11:24.303Z,35.17
2023-03-02T03:14:13.393Z,35.28
2023-03-02T03:16:42.092Z,34.72
2023-03-02T03:19:20.943Z,30.85
2023-03-02T03:21:51.456Z,31.15
2023-03-02T03:24:19.318Z,35.10
2023-03-02T03:26:47.339Z,35.20
2023-03-02T03:29:15.702Z,31.42
2023-03-02T03:31:42.594Z,30.98
2023-03-02T03:34:10.086Z,34.63
2023-03-02T03:36:37.425Z,36.08
2023-03-02T03:39:05.678Z,32.17
2023-03-02T03:41:33.039Z,30.90
2023-03-02T03:44:00.014Z,31.27
2023-03-02T03:46:28.723Z,32.60
2023-03-02T03:48:55.741Z,29.88
2023-03-02T03:51:23.592Z,31.15
2023-03-02T03:53:59.699Z,35.97
2023-03-02T03:56:34.038Z,30.77
2023-03-02T03:59:07.713Z,29.83
2023-03-02T04:01:45.877Z,26.67
2023-03-02T04:04:15.943Z,29.92
2023-03-02T04:06:43.216Z,31.08
2023-03-02T04:09:12.063Z,29.50
2023-03-02T04:11:41.365Z,29.67
2023-03-02T04:14:09.000Z,29.73
2023-03-02T04:16:36.705Z,25.02
2023-03-02T04:19:04.704Z,26.77
2023-03-02T04:21:31.454Z,36.38
2023-03-02T04:23:58.023Z,30.83
2023-03-02T04:26:26.164Z,31.40
2023-03-02T04:28:52.823Z,30.05
2023-03-02T04:31:20.311Z,28.55
2023-03-02T04:33:46.985Z,30.67
2023-03-02T04:36:13.742Z,30.05
2023-03-02T04:38:40.449Z,30.55
2023-03-02T04:41:07.994Z,31.33
2023-03-02T04:43:34.666Z,30.10
2023-03-02T04:46:01.347Z,31.25
2023-03-02T04:48:27.986Z,30.77
2023-03-02T04:50:54.526Z,35.13
2023-03-02T04:53:21.112Z,33.25
2023-03-02T04:55:47.813Z,30.45
2023-03-02T04:58:14.819Z,27.52
2023-03-02T05:00:41.436Z,30.98
2023-03-02T05:03:08.198Z,31.45
2023-03-02T05:05:34.943Z,31.83
2023-03-02T05:08:01.508Z,30.42
2023-03-02T05:10:28.261Z,27.08
2023-03-02T05:12:55.183Z,28.50
2023-03-02T05:15:23.070Z,32.22
2023-03-02T05:17:49.635Z,26.98
2023-03-02T05:20:17.398Z,29.67
2023-03-02T05:22:44.013Z,28.83
2023-03-02T05:25:11.598Z,28.17
2023-03-02T05:27:38.457Z,32.40
2023-03-02T05:30:06.420Z,30.35
2023-03-02T05:32:32.989Z,29.92
2023-03-02T05:34:59.523Z,29.85
2023-03-02T05:37:25.952Z,28.92
2023-03-02T05:39:52.787Z,29.45
2023-03-02T05:42:19.222Z,28.98
2023-03-02T05:44:45.722Z,32.83
2023-03-02T05:47:12.288Z,32.13
2023-03-02T05:49:38.993Z,30.05
2023-03-02T05:52:05.630Z,34.95
2023-03-02T05:54:32.265Z,24.35
2023-03-02T05:56:58.866Z,34.45
2023-03-02T05:59:25.343Z,28.27
2023-03-02T06:01:58.467Z,32.60
2023-03-02T06:04:25.972Z,31.98
2023-03-02T06:06:52.703Z,34.00
2023-03-02T06:09:19.352Z,29.42
2023-03-02T06:11:45.996Z,30.17
2023-03-02T06:14:12.545Z,29.50
2023-03-02T06:16:39.210Z,38.97
2023-03-02T06:19:05.828Z,32.97
2023-03-02T06:21:32.508Z,34.35
2023-03-02T06:23:58.966Z,32.67
2023-03-02T06:26:25.532Z,38.58
2023-03-02T06:28:53.898Z,34.70
2023-03-02T06:31:21.497Z,35.83
2023-03-02T06:33:48.088Z,35.63
2023-03-02T06:36:16.865Z,30.95
2023-03-02T06:38:43.387Z,31.58
2023-03-02T06:41:10.076Z,33.58
2023-03-02T06:43:36.641Z,35.15
2023-03-02T06:46:03.210Z,30.42
2023-03-02T06:48:29.654Z,28.55
2023-03-02T06:50:56.062Z,36.33
2023-03-02T06:53:23.348Z,31.27
2023-03-02T06:55:50.718Z,36.20
2023-03-02T06:58:17.385Z,34.15
2023-03-02T07:00:44.106Z,32.65
2023-03-02T07:03:10.640Z,35.75
2023-03-02T07:05:37.417Z,30.83
2023-03-02T07:08:04.190Z,35.30
2023-03-02T07:10:30.792Z,32.75
2023-03-02T07:12:57.349Z,30.52
2023-03-02T07:15:23.822Z,35.88
2023-03-02T07:17:50.245Z,35.67
2023-03-02T07:20:18.584Z,29.23
2023-03-02T07:22:45.476Z,31.25
2023-03-02T07:25:12.597Z,31.25
2023-03-02T07:27:39.504Z,33.30
2023-03-02T07:30:07.123Z,31.50
2023-03-02T07:32:33.901Z,32.35
2023-03-02T07:35:00.477Z,32.42
2023-03-02T07:37:27.023Z,36.50
2023-03-02T07:39:54.352Z,29.85
2023-03-02T07:42:20.993Z,33.88
2023-03-02T07:44:54.402Z,34.67
2023-03-02T07:47:21.192Z,36.22
2023-03-02T07:49:47.712Z,31.33
2023-03-02T07:52:15.047Z,31.17
2023-03-02T07:54:41.531Z,27.42
2023-03-02T07:57:10.817Z,34.42
2023-03-02T07:59:37.251Z,26.08
2023-03-02T08:02:03.739Z,30.15
2023-03-02T08:04:30.373Z,33.60
2023-03-02T08:06:56.858Z,32.70
2023-03-02T08:09:23.343Z,29.70
2023-03-02T08:11:53.139Z,32.97
2023-03-02T08:14:19.634Z,30.45
2023-03-02T08:16:46.225Z,31.10
2023-03-02T08:19:13.006Z,29.30
2023-03-02T08:21:39.646Z,29.15
2023-03-02T08:24:06.464Z,26.02
2023-03-02T08:26:33.564Z,26.17
2023-03-02T08:29:00.174Z,27.33
2023-03-02T08:31:26.773Z,25.63
2023-03-02T08:33:53.553Z,28.98
2023-03-02T08:36:20.295Z,25.42
2023-03-02T08:38:47.968Z,25.40
2023-03-02T08:41:20.280Z,23.70
2023-03-02T08:43:47.439Z,25.45
2023-03-02T08:46:17.468Z,26.50
2023-03-02T08:48:44.236Z,22.67
2023-03-02T08:51:17.022Z,28.98
2023-03-02T08:53:46.271Z,31.70
2023-03-02T08:56:19.387Z,28.58
2023-03-02T08:58:47.127Z,26.92
2023-03-02T09:01:29.726Z,24.48
2023-03-02T09:03:57.652Z,26.05
2023-03-02T09:06:24.268Z,23.73
2023-03-02T09:08:51.400Z,27.77
2023-03-02T09:11:18.374Z,27.83
2023-03-02T09:13:44.917Z,26.67
2023-03-02T09:16:13.151Z,24.90
2023-03-02T09:18:40.242Z,26.85
2023-03-02T09:21:06.706Z,24.15
2023-03-02T09:23:35.407Z,21.83
2023-03-02T09:26:02.644Z,23.13
2023-03-02T09:28:29.496Z,26.25
2023-03-02T09:31:01.269Z,23.77
2023-03-02T09:33:30.530Z,26.33
2023-03-02T09:35:57.348Z,28.23
2023-03-02T09:38:24.387Z,27.13
2023-03-02T09:40:59.756Z,21.70
2023-03-02T09:43:38.493Z,25.00
2023-03-02T09:46:23.450Z,26.48
2023-03-02T09:49:11.865Z,21.80
2023-03-02T09:52:16.600Z,27.17
2023-03-02T09:54:43.302Z,25.02
2023-03-02T09:57:25.448Z,21.70
2023-03-02T10:00:18.163Z,18.40
2023-03-02T10:02:47.973Z,23.35
2023-03-02T10:05:24.659Z,22.67
2023-03-02T10:07:51.506Z,23.95
2023-03-02T10:10:22.838Z,25.15
2023-03-02T10:13:18.431Z,21.85
2023-03-02T10:16:08.146Z,21.42
2023-03-02T10:18:45.601Z,21.40
2023-03-02T10:21:12.087Z,57.72
2023-03-02T10:24:00.975Z,23.45
2023-03-02T10:26:41.113Z,23.55
2023-03-02T10:29:18.681Z,19.27
2023-03-02T10:31:47.064Z,25.85
2023-03-02T10:34:14.237Z,20.38
2023-03-02T10:36:44.690Z,23.02
2023-03-02T10:39:14.176Z,25.08
2023-03-02T10:41:53.217Z,18.50
2023-03-02T10:44:19.722Z,19.95
2023-03-02T10:46:47.044Z,25.60
2023-03-02T10:49:24.134Z,18.08
2023-03-02T10:52:18.545Z,18.33
2023-03-02T10:54:45.625Z,26.00
2023-03-02T10:57:37.077Z,17.67
2023-03-02T11:00:24.771Z,17.52
2023-03-02T11:02:52.495Z,32.55
2023-03-02T11:05:23.844Z,15.50
2023-03-02T11:08:00.479Z,16.15
2023-03-02T11:10:36.625Z,16.20
2023-03-02T11:13:16.526Z,14.55
2023-03-02T11:15:51.239Z,18.60
2023-03-02T11:18:30.925Z,13.35
2023-03-02T11:21:08.323Z,17.35
2023-03-02T11:24:04.155Z,18.40
2023-03-02T11:26:37.414Z,17.38
2023-03-02T11:29:28.700Z,15.95
2023-03-02T11:32:01.170Z,13.80
2023-03-02T11:34:49.390Z,16.15
2023-03-02T11:37:15.821Z,16.17
2023-03-02T11:39:54.964Z,16.85
2023-03-02T11:42:28.499Z,15.20
2023-03-02T11:44:55.291Z,14.55
2023-03-02T11:47:23.078Z,17.38
2023-03-02T11:49:55.976Z,14.52
2023-03-02T11:52:26.142Z,12.48
2023-03-02T11:55:06.280Z,10.80
2023-03-02T11:57:40.056Z,15.40
2023-03-02T12:00:21.826Z,12.85
2023-03-02T12:02:58.903Z,15.52
2023-03-02T12:05:28.721Z,9.73
2023-03-02T12:07:58.788Z,15.60
2023-03-02T12:10:33.059Z,14.95
2023-03-02T12:13:23.247Z,15.40
2023-03-02T12:15:50.740Z,16.83
2023-03-02T12:18:23.151Z,9.68
2023-03-02T12:21:04.682Z,9.48
2023-03-02T12:23:34.298Z,11.65
2023-03-02T12:26:24.617Z,17.65
2023-03-02T12:29:09.591Z,10.95
2023-03-02T12:31:56.739Z,9.75
2023-03-02T12:34:38.109Z,13.45
2023-03-02T12:37:16.158Z,11.00
2023-03-02T12:40:03.855Z,10.48
2023-03-02T12:42:42.303Z,13.25
2023-03-02T12:45:27.051Z,7.78
2023-03-02T12:48:14.437Z,12.23
2023-03-02T12:50:41.819Z,11.85
2023-03-02T12:53:18.664Z,15.45
2023-03-02T12:55:46.153Z,12.02
2023-03-02T12:58:21.098Z,12.27
2023-03-02T13:00:59.560Z,8.13
2023-03-02T13:03:28.669Z,10.25
2023-03-02T13:06:13.723Z,8.77
2023-03-02T13:08:44.606Z,8.98
2023-03-02T13:11:12.148Z,8.17
2023-03-02T13:13:40.408Z,9.02
2023-03-02T13:16:20.960Z,8.85
2023-03-02T13:18:49.762Z,13.38
2023-03-02T13:21:18.858Z,7.78
2023-03-02T13:23:48.741Z,9.20
2023-03-02T13:26:34.204Z,12.80
2023-03-02T13:29:03.583Z,14.07
2023-03-02T13:31:31.927Z,15.38
2023-03-02T13:33:59.417Z,17.23
2023-03-02T13:36:29.302Z,18.80
2023-03-02T13:38:59.270Z,19.88
2023-03-02T13:41:31.963Z,16.25
2023-03-02T13:43:59.507Z,18.83
2023-03-02T13:46:35.718Z,16.38
2023-03-02T13:49:10.782Z,17.80
2023-03-02T13:51:46.642Z,16.83
2023-03-02T13:54:22.150Z,17.85
2023-03-02T13:56:51.202Z,14.82
2023-03-02T13:59:19.919Z,16.48
2023-03-02T14:01:46.945Z,15.23
2023-03-02T14:04:17.508Z,16.40
2023-03-02T14:06:45.026Z,14.30
2023-03-02T14:09:11.623Z,16.25
2023-03-02T14:11:42.028Z,13.90
2023-03-02T14:14:14.316Z,18.92
2023-03-02T14:16:41.531Z,14.15
2023-03-02T14:19:10.634Z,18.25
2023-03-02T14:21:37.281Z,11.98
2023-03-02T14:24:03.939Z,14.23
2023-03-02T14:26:45.584Z,18.90
2023-03-02T14:29:31.556Z,11.90
2023-03-02T14:32:06.550Z,14.52
2023-03-02T14:34:36.113Z,12.05
2023-03-02T14:37:10.944Z,14.65
2023-03-02T14:39:39.877Z,13.80
2023-03-02T14:42:12.342Z,15.50
2023-03-02T14:44:39.358Z,17.08
2023-03-02T14:47:05.909Z,17.63
2023-03-02T14:49:32.681Z,15.23
2023-03-02T14:52:05.504Z,13.10
2023-03-02T14:54:39.879Z,19.60
2023-03-02T14:57:16.914Z,13.80
2023-03-02T14:59:43.409Z,15.65
2023-03-02T15:02:24.268Z,17.02
2023-03-02T15:04:56.018Z,13.68
2023-03-02T15:07:23.871Z,14.60
2023-03-02T15:09:50.432Z,11.63
2023-03-02T15:12:16.876Z,17.45
2023-03-02T15:14:43.974Z,14.45
2023-03-02T15:17:10.698Z,13.13
2023-03-02T15:19:37.169Z,12.25
2023-03-02T15:22:04.604Z,12.48
2023-03-02T15:24:33.247Z,15.55
2023-03-02T15:27:00.185Z,15.73
2023-03-02T15:29:26.704Z,15.48
2023-03-02T15:31:53.438Z,19.55
2023-03-02T15:34:20.077Z,16.73
2023-03-02T15:36:46.531Z,17.13
2023-03-02T15:39:14.363Z,16.45
2023-03-02T15:41:42.263Z,16.88
2023-03-02T15:44:17.252Z,17.83
2023-03-02T15:46:43.755Z,16.27
2023-03-02T15:49:10.270Z,16.85
2023-03-02T15:51:36.777Z,14.05
2023-03-02T15:54:03.336Z,15.02
2023-03-02T15:56:38.751Z,15.25
2023-03-02T15:59:10.121Z,13.90
2023-03-02T16:01:36.836Z,16.02
2023-03-02T16:04:03.314Z,15.07
2023-03-02T16:06:30.290Z,11.55
2023-03-02T16:08:56.813Z,17.27
2023-03-02T16:11:23.396Z,11.80
2023-03-02T16:13:52.179Z,16.45
2023-03-02T16:16:20.593Z,15.02
2023-03-02T16:18:58.431Z,15.75
2023-03-02T16:21:28.405Z,11.90
2023-03-02T16:23:56.297Z,13.40
2023-03-02T16:26:23.048Z,15.55
2023-03-02T16:28:49.555Z,18.33
2023-03-02T16:31:19.043Z,14.25
2023-03-02T16:33:47.185Z,18.67
2023-03-02T16:36:14.621Z,15.35
2023-03-02T16:38:41.760Z,18.33
2023-03-02T16:41:20.380Z,16.55
2023-03-02T16:43:49.956Z,20.80
2023-03-02T16:46:17.381Z,18.90
2023-03-02T16:48:45.222Z,17.30
2023-03-02T16:51:12.465Z,17.50
2023-03-02T16:53:40.686Z,18.42
2023-03-02T16:56:11.856Z,19.42
2023-03-02T16:58:39.712Z,19.27
2023-03-02T17:01:07.986Z,20.77
2023-03-02T17:03:35.126Z,19.50
2023-03-02T17:06:01.890Z,22.88
2023-03-02T17:08:28.466Z,19.13
2023-03-02T17:10:54.950Z,17.15
2023-03-02T17:13:21.380Z,20.55
2023-03-02T17:15:48.048Z,17.90
2023-03-02T17:18:17.219Z,19.45
2023-03-02T17:20:43.785Z,22.23
2023-03-02T17:23:12.323Z,18.83
2023-03-02T17:25:39.572Z,21.90
2023-03-02T17:28:06.512Z,18.35
2023-03-02T17:30:33.092Z,20.00
2023-03-02T17:32:59.575Z,18.80
2023-03-02T17:35:26.374Z,18.52
2023-03-02T17:37:53.191Z,21.98
2023-03-02T17:40:19.869Z,19.35
2023-03-02T17:42:46.371Z,16.45
2023-03-02T17:45:21.303Z,19.25
2023-03-02T17:47:50.137Z,19.30
2023-03-02T17:50:17.040Z,17.48
2023-03-02T17:52:43.966Z,17.98
2023-03-02T17:55:11.844Z,22.45
2023-03-02T17:57:38.377Z,15.50
2023-03-02T18:00:09.764Z,16.73
2023-03-02T18:02:36.278Z,16.05
2023-03-02T18:05:04.065Z,15.10
2023-03-02T18:07:30.515Z,15.85
2023-03-02T18:09:56.997Z,16.60
2023-03-02T18:12:23.504Z,17.15
2023-03-02T18:14:49.985Z,17.38
2023-03-02T18:17:16.710Z,16.08
2023-03-02T18:19:43.187Z,14.95
2023-03-02T18:22:10.107Z,16.60
2023-03-02T18:24:36.551Z,18.75
2023-03-02T18:27:03.006Z,15.35
2023-03-02T18:29:29.510Z,15.18
2023-03-02T18:31:56.068Z,15.40
2023-03-02T18:34:22.594Z,18.65
2023-03-02T18:36:49.074Z,14.82
2023-03-02T18:39:18.367Z,18.13
2023-03-02T18:41:44.794Z,13.73
2023-03-02T18:44:11.352Z,14.38
2023-03-02T18:46:45.545Z,14.13
2023-03-02T18:49:12.050Z,20.65
2023-03-02T18:51:38.565Z,13.93
2023-03-02T18:54:05.048Z,15.65
2023-03-02T18:56:31.529Z,15.02
2023-03-02T18:58:58.026Z,17.40
2023-03-02T19:01:24.457Z,15.27
2023-03-02T19:03:50.914Z,16.15
2023-03-02T19:06:17.561Z,15.07
2023-03-02T19:08:44.090Z,15.02
2023-03-02T19:11:11.648Z,13.48
2023-03-02T19:13:38.188Z,14.00
2023-03-02T19:16:05.130Z,15.77
2023-03-02T19:18:31.771Z,13.80
2023-03-02T19:20:58.358Z,17.95
2023-03-02T19:23:25.084Z,18.15
2023-03-02T19:25:52.171Z,16.60
2023-03-02T19:28:19.076Z,14.90
2023-03-02T19:30:45.519Z,19.60
2023-03-02T19:33:12.074Z,24.95
2023-03-02T19:35:38.865Z,16.83
2023-03-02T19:38:06.598Z,16.80
2023-03-02T19:40:34.369Z,13.60
2023-03-02T19:43:01.135Z,18.95
2023-03-02T19:45:30.170Z,16.60
2023-03-02T19:47:57.814Z,17.35
2023-03-02T19:50:26.187Z,16.73
2023-03-02T19:52:54.689Z,18.58
2023-03-02T19:55:22.247Z,18.20
2023-03-02T19:57:59.274Z,17.73
2023-03-02T20:00:27.873Z,19.40
2023-03-02T20:02:54.541Z,19.00
2023-03-02T20:05:21.131Z,19.35
2023-03-02T20:07:47.698Z,16.73
2023-03-02T20:10:45.697Z,17.70
2023-03-02T20:13:12.948Z,17.10
2023-03-02T20:15:44.230Z,19.63
2023-03-02T20:18:17.400Z,20.63
2023-03-02T20:20:45.101Z,16.48
2023-03-02T20:23:12.189Z,16.27
2023-03-02T20:25:38.739Z,17.15
2023-03-02T20:28:07.488Z,19.10
2023-03-02T20:30:40.959Z,20.02
2023-03-02T20:33:08.311Z,19.10
2023-03-02T20:35:39.847Z,18.45
2023-03-02T20:38:10.269Z,19.98
2023-03-02T20:40:37.180Z,18.63
2023-03-02T20:43:05.463Z,18.52
2023-03-02T20:45:32.683Z,24.48
2023-03-02T20:47:59.211Z,25.20
2023-03-02T20:50:29.340Z,19.77
2023-03-02T20:52:55.902Z,23.50
2023-03-02T20:55:22.643Z,24.75
2023-03-02T20:57:49.145Z,22.75
2023-03-02T21:00:20.683Z,22.17
2023-03-02T21:02:48.432Z,24.25
2023-03-02T21:05:16.837Z,21.10
2023-03-02T21:07:44.468Z,25.42
2023-03-02T21:10:15.156Z,27.02
2023-03-02T21:12:42.940Z,24.85
2023-03-02T21:15:10.450Z,21.25
2023-03-02T21:17:36.919Z,28.65
2023-03-02T21:20:05.107Z,24.38
2023-03-02T21:22:31.626Z,29.15
2023-03-02T21:24:58.154Z,24.55
2023-03-02T21:27:24.686Z,25.40
2023-03-02T21:29:51.189Z,25.40
2023-03-02T21:32:17.861Z,29.88
2023-03-02T21:34:44.825Z,22.45
2023-03-02T21:37:11.392Z,28.45
2023-03-02T21:39:38.127Z,27.17
2023-03-02T21:42:04.776Z,25.83
2023-03-02T21:44:32.079Z,27.75
2023-03-02T21:46:58.570Z,31.60
2023-03-02T21:49:25.043Z,27.40
2023-03-02T21:51:51.570Z,26.17
2023-03-02T21:54:18.092Z,26.60
2023-03-02T21:56:44.680Z,34.97
2023-03-02T21:59:11.986Z,24.10
2023-03-02T22:01:38.542Z,30.58
2023-03-02T22:04:05.585Z,29.27
2023-03-02T22:06:34.298Z,30.50
2023-03-02T22:09:01.543Z,25.30
2023-03-02T22:11:31.898Z,25.48
2023-03-02T22:14:10.418Z,29.73
2023-03-02T22:16:43.125Z,27.58
2023-03-02T22:19:26.798Z,27.45
2023-03-02T22:21:59.911Z,25.33
2023-03-02T22:24:32.414Z,25.98
2023-03-02T22:27:27.090Z,27.52
2023-03-02T22:29:57.672Z,28.13
2023-03-02T22:32:28.026Z,27.90
2023-03-02T22:34:57.081Z,26.27
2023-03-02T22:37:26.877Z,24.52
2023-03-02T22:39:55.654Z,27.52
2023-03-02T22:42:24.851Z,27.50
2023-03-02T22:45:26.409Z,24.25
2023-03-02T22:47:53.983Z,23.17
2023-03-02T22:50:26.798Z,22.35
2023-03-02T22:52:55.535Z,22.88
2023-03-02T22:55:35.395Z,22.20
2023-03-02T22:58:20.528Z,24.40
2023-03-02T23:00:47.880Z,22.83
2023-03-02T23:03:19.590Z,20.10
2023-03-02T23:05:49.185Z,22.98
2023-03-02T23:08:28.527Z,24.55
2023-03-02T23:10:58.463Z,23.73
2023-03-02T23:13:40.518Z,23.23
2023-03-02T23:16:21.939Z,20.27
2023-03-02T23:18:49.524Z,22.33
2023-03-02T23:21:49.524Z,21.30
2023-03-02T23:24:18.840Z,17.88
2023-03-02T23:26:45.426Z,23.15
2023-03-02T23:29:12.079Z,19.83
2023-03-02T23:31:38.627Z,19.98
2023-03-02T23:34:05.465Z,18.25
2023-03-02T23:36:32.026Z,22.70
2023-03-02T23:38:58.669Z,20.52
2023-03-02T23:41:25.262Z,20.02
2023-03-02T23:43:51.862Z,20.45
2023-03-02T23:46:18.432Z,21.35
2023-03-02T23:48:44.873Z,19.30
2023-03-02T23:51:11.671Z,18.83
2023-03-02T23:53:38.103Z,17.83
2023-03-02T23:56:04.822Z,17.60
2023-03-02T23:58:31.411Z,17.38
